Time;durP1;ratioP1;P1;durP2;ratioP2;P2;SDS_P1;SDS_P2;PMS_P1;PMS_P2;Temp;Humidity;BMP_temperature;BMP_pressure;BME280_temperature;BME280_humidity;BME280_pressure;Samples;Min_cycle;Max_cycle;Signal;HPM_P1;HPM_P2
2023/02/02 00:01:33;;;;;;;29.25;6.63;;;;;;;7.07;92.21;101594.75;5073139;28;20545;-53
2023/02/02 00:04:00;;;;;;;34.13;6.07;;;;;;;6.86;93.38;101587.44;5070331;28;20509;-54
2023/02/02 00:06:28;;;;;;;37.75;7.00;;;;;;;6.90;93.38;101591.53;5075305;28;20052;-53
2023/02/02 00:08:57;;;;;;;28.58;6.05;;;;;;;6.89;94.00;101589.00;5092807;28;20052;-54
2023/02/02 00:11:24;;;;;;;37.85;6.35;;;;;;;6.86;93.93;101586.59;5092979;28;20071;-54
2023/02/02 00:13:51;;;;;;;35.65;7.07;;;;;;;6.95;93.92;101593.88;5093277;28;20440;-54
2023/02/02 00:19:07;;;;;;;35.15;7.32;;;;;;;6.94;93.88;101583.41;5111310;27;20368;-55
2023/02/02 00:21:35;;;;;;;37.97;6.63;;;;;;;6.94;94.41;101588.69;5111423;28;20051;-54
2023/02/02 00:24:01;;;;;;;36.58;6.63;;;;;;;6.82;94.85;101572.78;5111240;28;20039;-54
2023/02/02 00:26:28;;;;;;;40.80;7.07;;;;;;;6.87;94.74;101578.56;5111191;28;20489;-54
2023/02/02 00:28:55;;;;;;;36.47;6.72;;;;;;;6.95;94.40;101577.16;5111250;28;20044;-54
2023/02/02 00:31:22;;;;;;;34.00;6.30;;;;;;;7.02;94.29;101579.28;5111451;28;20051;-50
2023/02/02 00:33:50;;;;;;;29.67;6.55;;;;;;;7.04;93.91;101571.22;5111096;28;20048;-53
2023/02/02 00:36:18;;;;;;;48.15;6.60;;;;;;;7.04;94.01;101572.09;5112441;28;20078;-53
2023/02/02 00:38:47;;;;;;;28.63;6.18;;;;;;;6.88;94.19;101574.97;5131055;28;20511;-52
2023/02/02 00:41:15;;;;;;;33.00;6.10;;;;;;;7.05;94.31;101572.94;5131347;27;20399;-53
2023/02/02 00:43:42;;;;;;;29.25;6.45;;;;;;;6.86;95.40;101565.50;5131466;27;20493;-53
2023/02/02 00:46:13;;;;;;;36.45;6.25;;;;;;;6.90;96.55;101575.72;5130295;28;20051;-52
2023/02/02 00:48:40;;;;;;;39.40;6.88;;;;;;;6.91;96.67;101568.63;5131156;27;20039;-53
2023/02/02 00:51:06;;;;;;;24.42;5.85;;;;;;;6.79;97.21;101573.00;5131056;27;20408;-53
2023/02/02 00:53:34;;;;;;;32.20;6.38;;;;;;;6.79;96.90;101574.81;5131207;27;20096;-53
2023/02/02 00:56:01;;;;;;;31.92;6.07;;;;;;;6.81;97.76;101572.91;5129021;27;20048;-53
2023/02/02 00:58:28;;;;;;;40.88;7.25;;;;;;;6.80;98.82;101565.94;5110100;28;20492;-54
2023/02/02 01:00:55;;;;;;;38.90;6.20;;;;;;;6.83;98.92;101573.63;5110157;28;20086;-53
2023/02/02 01:03:22;;;;;;;38.30;7.68;;;;;;;6.85;99.17;101584.91;5110413;28;20063;-53
2023/02/02 01:05:50;;;;;;;31.60;6.40;;;;;;;6.83;99.26;101579.75;5110496;28;20047;-52
2023/02/02 01:08:17;;;;;;;39.88;6.50;;;;;;;6.82;98.54;101585.97;5110128;28;20043;-53
2023/02/02 01:10:44;;;;;;;38.65;7.30;;;;;;;6.65;99.00;101589.78;5110362;28;20044;-54
2023/02/02 01:13:10;;;;;;;33.72;6.13;;;;;;;6.80;98.30;101590.50;5110610;28;20089;-54
2023/02/02 01:15:37;;;;;;;34.45;6.43;;;;;;;6.86;97.63;101595.34;5110349;28;20040;-53
2023/02/02 01:18:05;;;;;;;42.95;7.22;;;;;;;6.82;98.13;101599.16;5108627;28;20056;-53
2023/02/02 01:20:31;;;;;;;32.80;6.80;;;;;;;6.91;97.55;101601.16;5110025;28;20066;-53
2023/02/02 01:22:58;;;;;;;27.50;5.07;;;;;;;6.94;97.61;101599.25;5110269;28;20066;-54
2023/02/02 01:25:26;;;;;;;32.75;6.32;;;;;;;6.86;98.25;101602.44;5110119;28;20097;-53
2023/02/02 01:27:53;;;;;;;29.73;6.20;;;;;;;6.87;98.51;101610.22;5110197;28;20044;-54
2023/02/02 01:30:20;;;;;;;43.08;7.70;;;;;;;6.88;99.18;101606.63;5096884;28;20044;-51
2023/02/02 01:32:47;;;;;;;37.33;6.32;;;;;;;6.84;99.67;101612.22;5096570;28;20044;-53
2023/02/02 01:35:14;;;;;;;30.00;5.57;;;;;;;6.92;98.79;101605.47;5096227;28;20383;-51
2023/02/02 01:37:40;;;;;;;32.95;6.43;;;;;;;6.89;99.63;101604.84;5110317;28;20032;-53
2023/02/02 01:40:09;;;;;;;27.88;6.47;;;;;;;6.85;99.53;101606.00;5116678;28;20074;-52
2023/02/02 01:42:36;;;;;;;27.42;5.78;;;;;;;6.81;100.00;101612.47;5116755;28;20069;-53
2023/02/02 01:45:24;;;;;;;28.70;5.72;;;;;;;6.80;100.00;101611.59;5116383;28;20031;-53
2023/02/02 01:47:56;;;;;;;29.63;5.35;;;;;;;6.78;100.00;101605.59;5116290;28;20529;-52
2023/02/02 01:50:28;;;;;;;33.08;5.63;;;;;;;6.73;100.00;101603.28;5115203;28;20485;-53
2023/02/02 01:52:59;;;;;;;33.97;5.75;;;;;;;6.78;99.86;101607.41;5116537;28;20043;-52
2023/02/02 01:55:29;;;;;;;37.78;5.75;;;;;;;6.71;100.00;101609.59;5116481;28;20516;-53
2023/02/02 01:58:04;;;;;;;35.35;5.57;;;;;;;6.87;99.72;101615.47;5097695;28;20072;-54
2023/02/02 02:00:31;;;;;;;29.38;4.93;;;;;;;6.88;99.99;101619.00;5095510;28;20093;-52
2023/02/02 02:03:03;;;;;;;27.80;5.30;;;;;;;6.78;100.00;101625.84;5088465;28;20078;-52
2023/02/02 02:05:41;;;;;;;36.90;5.47;;;;;;;6.75;100.00;101612.88;5074710;28;20044;-52
2023/02/02 02:08:16;;;;;;;24.02;5.07;;;;;;;6.81;99.88;101623.84;5110495;28;20093;-52
2023/02/02 02:10:42;;;;;;;33.20;5.60;;;;;;;6.82;100.00;101619.41;5114956;28;20105;-52
2023/02/02 02:13:10;;;;;;;29.40;5.72;;;;;;;6.72;100.00;101614.78;5115874;28;20050;-52
2023/02/02 02:16:19;;;;;;;30.23;5.68;;;;;;;6.69;100.00;101614.16;5115974;28;20050;-53
2023/02/02 02:19:29;;;;;;;31.73;6.55;;;;;;;6.85;100.00;101606.84;5114934;28;20093;-52
2023/02/02 02:29:08;;;;;;;32.55;5.93;;;;;;;6.66;100.00;101598.56;5074716;28;20040;-53
2023/02/02 02:32:15;;;;;;;33.78;6.18;;;;;;;6.59;100.00;101594.66;5074888;28;20131;-54
2023/02/02 02:35:04;;;;;;;17.80;4.85;;;;;;;6.62;100.00;101600.56;5074500;28;20508;-53
2023/02/02 02:37:53;;;;;;;30.23;6.10;;;;;;;6.56;100.00;101595.72;5101281;28;20116;-53
2023/02/02 02:40:29;;;;;;;24.67;5.35;;;;;;;6.52;100.00;101591.59;5113825;28;20118;-53
2023/02/02 02:43:00;;;;;;;29.73;6.65;;;;;;;6.51;100.00;101603.94;5115341;28;20493;-53
2023/02/02 02:45:28;;;;;;;30.25;6.03;;;;;;;6.61;100.00;101600.69;5115570;28;20058;-53
2023/02/02 02:47:55;;;;;;;35.20;6.38;;;;;;;6.59;100.00;101594.66;5115347;28;20039;-52
2023/02/02 02:50:24;;;;;;;40.55;6.82;;;;;;;6.61;100.00;101590.13;5114610;28;20175;-53
2023/02/02 02:53:00;;;;;;;36.80;6.95;;;;;;;6.56;100.00;101593.06;5115403;28;20039;-53
2023/02/02 02:55:38;;;;;;;33.90;6.97;;;;;;;6.43;100.00;101593.09;5115349;28;20046;-54
2023/02/02 02:58:12;;;;;;;16.50;4.45;;;;;;;6.59;100.00;101598.13;5094283;28;20042;-54
2023/02/02 03:00:57;;;;;;;35.90;7.07;;;;;;;6.57;100.00;101602.69;5093976;28;20044;-52
2023/02/02 03:03:40;;;;;;;19.00;5.32;;;;;;;6.53;100.00;101602.06;5094787;28;20375;-53
2023/02/02 03:06:26;;;;;;;31.42;5.88;;;;;;;6.47;100.00;101607.72;5093153;28;20113;-53
2023/02/02 03:08:59;;;;;;;30.60;6.70;;;;;;;6.53;100.00;101612.59;5094518;28;20040;-56
2023/02/02 03:11:28;;;;;;;26.63;5.65;;;;;;;6.57;100.00;101609.72;5094726;28;20048;-52
2023/02/02 03:13:55;;;;;;;31.98;5.88;;;;;;;6.45;100.00;101606.16;5094742;28;20051;-54
2023/02/02 03:16:22;;;;;;;36.60;6.03;;;;;;;6.50;100.00;101606.69;5094428;28;20040;-53
2023/02/02 03:18:49;;;;;;;25.58;5.45;;;;;;;6.54;100.00;101616.91;5093649;28;20073;-51
2023/02/02 03:21:16;;;;;;;28.65;5.63;;;;;;;6.48;100.00;101609.44;5094184;28;20516;-53
2023/02/02 03:23:43;;;;;;;27.63;5.80;;;;;;;6.55;100.00;101612.50;5094499;28;20048;-53
2023/02/02 03:26:10;;;;;;;27.80;5.72;;;;;;;6.47;100.00;101612.16;5093792;28;20379;-52
2023/02/02 03:28:36;;;;;;;32.08;5.13;;;;;;;6.41;100.00;101608.16;5094333;28;20093;-52
2023/02/02 03:31:04;;;;;;;33.63;5.40;;;;;;;6.44;100.00;101604.47;5092808;28;20450;-53
2023/02/02 03:33:34;;;;;;;33.13;6.20;;;;;;;6.58;100.00;101606.16;5093922;28;20122;-52
2023/02/02 03:36:01;;;;;;;34.97;6.03;;;;;;;6.50;100.00;101615.44;5094209;28;20481;-53
2023/02/02 03:38:28;;;;;;;37.70;7.28;;;;;;;6.49;100.00;101616.41;5114233;28;20481;-54
2023/02/02 03:40:55;;;;;;;31.95;5.68;;;;;;;6.40;100.00;101603.81;5114186;28;20039;-53
2023/02/02 03:43:23;;;;;;;29.58;5.88;;;;;;;6.37;100.00;101616.38;5113467;28;20531;-53
2023/02/02 03:45:58;;;;;;;36.08;5.70;;;;;;;6.39;100.00;101609.22;5114091;28;20043;-54
2023/02/02 03:48:25;;;;;;;24.85;5.50;;;;;;;6.41;100.00;101604.69;5114256;28;20055;-54
2023/02/02 03:50:53;;;;;;;27.95;5.63;;;;;;;6.41;100.00;101605.53;5114165;28;20554;-53
2023/02/02 03:53:20;;;;;;;36.78;5.82;;;;;;;6.36;100.00;101605.00;5113855;28;20434;-53
2023/02/02 03:55:46;;;;;;;38.47;6.50;;;;;;;6.43;100.00;101606.25;5114167;28;20059;-54
2023/02/02 03:58:13;;;;;;;27.30;5.15;;;;;;;6.45;100.00;101606.16;5093411;28;20119;-53
2023/02/02 04:00:40;;;;;;;32.97;5.53;;;;;;;6.50;100.00;101607.53;5093239;28;20070;-53
2023/02/02 04:03:08;;;;;;;39.60;7.03;;;;;;;6.40;100.00;101611.72;5091106;28;20051;-54
2023/02/02 04:05:34;;;;;;;37.33;6.32;;;;;;;6.43;100.00;101613.34;5072463;28;20524;-53
2023/02/02 04:08:04;;;;;;;30.45;5.65;;;;;;;6.41;100.00;101612.59;5108195;28;20071;-53
2023/02/02 04:10:31;;;;;;;24.17;5.97;;;;;;;6.31;100.00;101615.88;5113429;28;20047;-53
2023/02/02 04:12:57;;;;;;;31.23;5.95;;;;;;;6.45;100.00;101617.53;5113823;28;20112;-53
2023/02/02 04:15:24;;;;;;;27.80;6.32;;;;;;;6.47;100.00;101620.91;5114121;28;20489;-52
2023/02/02 04:17:51;;;;;;;36.72;5.85;;;;;;;6.39;100.00;101614.50;5112937;28;20060;-53
2023/02/02 04:20:17;;;;;;;33.60;6.65;;;;;;;6.47;100.00;101622.72;5113791;28;20075;-53
2023/02/02 04:22:45;;;;;;;27.98;5.78;;;;;;;6.49;100.00;101624.31;5113762;28;20374;-53
2023/02/02 04:25:13;;;;;;;30.92;5.72;;;;;;;6.48;100.00;101621.78;5112886;28;20044;-53
2023/02/02 04:27:39;;;;;;;29.20;5.88;;;;;;;6.56;100.00;101619.44;5097834;28;20140;-58
2023/02/02 04:30:07;;;;;;;29.00;5.65;;;;;;;6.49;100.00;101623.44;5093514;28;20044;-54
2023/02/02 04:32:34;;;;;;;36.92;5.50;;;;;;;6.53;100.00;101628.41;5093388;28;20132;-53
2023/02/02 04:35:01;;;;;;;31.42;6.80;;;;;;;6.58;100.00;101630.72;5093218;28;20064;-54
2023/02/02 04:37:30;;;;;;;30.38;5.38;;;;;;;6.59;100.00;101636.84;5105936;28;20047;-54
2023/02/02 04:39:56;;;;;;;29.20;6.13;;;;;;;6.67;100.00;101640.63;5113555;28;20539;-52
2023/02/02 04:42:24;;;;;;;30.33;6.05;;;;;;;6.61;100.00;101646.31;5113785;28;20137;-53
2023/02/02 04:44:50;;;;;;;32.33;5.30;;;;;;;6.61;100.00;101645.50;5113406;28;20040;-53
2023/02/02 04:47:17;;;;;;;35.20;6.15;;;;;;;6.67;100.00;101639.78;5113505;28;20048;-52
2023/02/02 04:49:44;;;;;;;32.47;6.13;;;;;;;6.68;100.00;101644.97;5113634;28;20097;-53
2023/02/02 04:52:10;;;;;;;29.00;5.32;;;;;;;6.61;100.00;101645.50;5113610;28;20451;-53
2023/02/02 04:54:37;;;;;;;27.08;6.28;;;;;;;6.63;100.00;101652.34;5113253;28;20386;-53
2023/02/02 04:57:04;;;;;;;31.90;5.85;;;;;;;6.62;100.00;101634.84;5101061;28;20451;-52
2023/02/02 04:59:30;;;;;;;42.17;6.57;;;;;;;6.56;100.00;101637.88;5092650;28;20040;-53
2023/02/02 05:01:59;;;;;;;28.48;5.45;;;;;;;6.60;100.00;101642.00;5092851;28;20101;-53
2023/02/02 05:04:26;;;;;;;30.67;5.53;;;;;;;6.62;100.00;101649.81;5094556;28;20044;-54
2023/02/02 05:06:53;;;;;;;29.50;5.65;;;;;;;6.73;100.00;101647.25;5096851;28;20048;-54
2023/02/02 05:09:20;;;;;;;26.10;5.60;;;;;;;6.69;100.00;101649.28;5096802;28;20054;-53
2023/02/02 05:11:47;;;;;;;38.83;5.88;;;;;;;6.66;100.00;101664.47;5096787;28;20056;-53
2023/02/02 05:14:17;;;;;;;37.88;5.78;;;;;;;6.60;100.00;101663.09;5096822;28;20048;-52
2023/02/02 05:16:44;;;;;;;25.88;5.15;;;;;;;6.66;100.00;101653.94;5096223;28;20383;-53
2023/02/02 05:19:11;;;;;;;30.35;4.88;;;;;;;6.76;100.00;101657.59;5096338;28;20037;-52
2023/02/02 05:21:39;;;;;;;36.53;5.72;;;;;;;6.58;100.00;101649.16;5096497;28;20044;-53
2023/02/02 05:24:05;;;;;;;37.97;6.30;;;;;;;6.65;100.00;101644.31;5096543;28;20048;-54
2023/02/02 05:26:32;;;;;;;35.50;5.82;;;;;;;6.55;100.00;101641.50;5096421;28;20044;-54
2023/02/02 05:28:59;;;;;;;36.00;5.72;;;;;;;6.50;100.00;101638.31;5096434;28;20139;-53
2023/02/02 05:31:26;;;;;;;35.80;6.03;;;;;;;6.57;100.00;101626.41;5096450;28;20048;-52
2023/02/02 05:33:52;;;;;;;29.88;5.88;;;;;;;6.60;100.00;101643.78;5096552;28;20047;-52
2023/02/02 05:36:19;;;;;;;25.05;6.03;;;;;;;6.57;100.00;101638.72;5099150;28;20487;-53
2023/02/02 05:38:46;;;;;;;31.23;6.18;;;;;;;6.62;100.00;101647.16;5116402;28;20044;-54
2023/02/02 05:41:12;;;;;;;31.40;6.10;;;;;;;6.70;100.00;101640.41;5116805;28;20047;-53
2023/02/02 05:43:40;;;;;;;27.63;6.22;;;;;;;6.61;100.00;101629.69;5116575;28;20092;-54
2023/02/02 05:46:06;;;;;;;31.27;4.88;;;;;;;6.71;100.00;101626.28;5115424;28;20071;-54
2023/02/02 05:48:33;;;;;;;31.00;7.05;;;;;;;6.65;100.00;101631.16;5115888;28;20043;-53
2023/02/02 05:51:15;;;;;;;27.88;6.43;;;;;;;6.72;100.00;101632.41;5116292;28;20134;-52
2023/02/02 05:53:43;;;;;;;26.70;7.00;;;;;;;6.68;100.00;101638.84;5116481;28;20047;-53
2023/02/02 05:56:12;;;;;;;36.90;8.85;;;;;;;6.67;100.00;101648.53;5112938;28;20052;-53
2023/02/02 05:58:38;;;;;;;28.45;6.72;;;;;;;6.61;100.00;101645.50;5094974;28;20524;-53
2023/02/02 06:01:05;;;;;;;32.95;8.02;;;;;;;6.60;100.00;101660.44;5095155;28;20066;-54
2023/02/02 06:03:32;;;;;;;27.80;5.78;;;;;;;6.66;100.00;101656.56;5095661;28;20044;-54
2023/02/02 06:05:59;;;;;;;26.50;5.68;;;;;;;6.70;100.00;101661.50;5054908;28;20040;-54
2023/02/02 06:08:25;;;;;;;29.30;6.68;;;;;;;6.66;100.00;101670.59;5114288;28;20067;-53
2023/02/02 06:10:52;;;;;;;38.20;8.80;;;;;;;6.81;100.00;101660.75;5115349;28;20055;-54
2023/02/02 06:13:18;;;;;;;30.45;7.28;;;;;;;6.61;100.00;101672.69;5115864;28;20047;-54
2023/02/02 06:15:45;;;;;;;36.22;6.38;;;;;;;6.73;100.00;101673.63;5115763;28;20074;-54
2023/02/02 06:18:12;;;;;;;33.13;6.85;;;;;;;6.69;100.00;101674.78;5115383;28;20052;-54
2023/02/02 06:20:39;;;;;;;24.48;5.88;;;;;;;6.72;100.00;101674.59;5115636;28;20054;-53
2023/02/02 06:23:05;;;;;;;36.72;7.65;;;;;;;6.71;100.00;101671.13;5115686;28;20490;-54
2023/02/02 06:25:33;;;;;;;27.98;6.95;;;;;;;6.66;100.00;101686.41;5115843;28;20067;-52
2023/02/02 06:28:00;;;;;;;31.60;8.13;;;;;;;6.58;100.00;101680.81;5096627;28;20054;-54
2023/02/02 06:30:27;;;;;;;33.72;8.10;;;;;;;6.61;100.00;101683.25;5095214;28;20482;-53
2023/02/02 06:32:53;;;;;;;26.90;7.38;;;;;;;6.66;100.00;101691.69;5095290;28;20048;-54
2023/02/02 06:35:20;;;;;;;36.15;7.63;;;;;;;6.60;100.00;101678.06;5095005;28;20067;-54
2023/02/02 06:37:47;;;;;;;32.88;8.13;;;;;;;6.61;100.00;101683.25;5110254;28;20139;-53
2023/02/02 06:40:14;;;;;;;36.08;9.13;;;;;;;6.66;100.00;101682.94;5115256;28;20051;-51
2023/02/02 06:42:41;;;;;;;35.17;8.60;;;;;;;6.61;100.00;101677.13;5115248;28;20067;-54
2023/02/02 06:45:09;;;;;;;52.60;9.60;;;;;;;6.61;100.00;101687.69;5115045;28;20101;-53
2023/02/02 06:47:35;;;;;;;37.03;8.60;;;;;;;6.51;100.00;101690.94;5115090;28;20054;-53
2023/02/02 06:50:03;;;;;;;32.05;8.55;;;;;;;6.50;100.00;101691.03;5115092;28;20531;-53
2023/02/02 06:52:30;;;;;;;30.95;8.70;;;;;;;6.45;100.00;101687.88;5114446;28;20397;-53
2023/02/02 06:54:56;;;;;;;38.90;8.40;;;;;;;6.57;100.00;101694.09;5114769;28;20100;-54
2023/02/02 06:57:23;;;;;;;31.02;9.02;;;;;;;6.53;100.00;101690.81;5100602;28;20097;-55
2023/02/02 06:59:51;;;;;;;22.73;6.25;;;;;;;6.46;100.00;101703.59;5093676;28;20121;-54
2023/02/02 07:02:18;;;;;;;26.45;7.05;;;;;;;6.57;100.00;101699.34;5094471;28;20048;-54
2023/02/02 07:04:44;;;;;;;31.90;8.15;;;;;;;6.60;100.00;101696.53;5094441;28;20044;-54
2023/02/02 07:07:11;;;;;;;27.17;8.10;;;;;;;6.58;100.00;101701.06;5087899;28;20050;-54
2023/02/02 07:09:38;;;;;;;38.78;9.05;;;;;;;6.61;100.00;101711.41;5093961;28;20502;-52
2023/02/02 07:12:05;;;;;;;31.90;8.80;;;;;;;6.51;100.00;101704.13;5094012;28;20058;-53
2023/02/02 07:14:31;;;;;;;38.60;8.63;;;;;;;6.53;100.00;101704.88;5094464;28;20094;-53
2023/02/02 07:16:58;;;;;;;36.97;9.18;;;;;;;6.61;100.00;101711.41;5093989;28;20455;-53
2023/02/02 07:19:25;;;;;;;27.20;7.25;;;;;;;6.56;100.00;101713.50;5094007;28;20036;-53
2023/02/02 07:21:52;;;;;;;16.95;6.30;;;;;;;6.59;100.00;101705.41;5092969;28;20075;-52
2023/02/02 07:24:19;;;;;;;25.73;8.00;;;;;;;6.55;100.00;101710.03;5094292;28;20104;-54
2023/02/02 07:26:45;;;;;;;25.73;7.90;;;;;;;6.49;100.00;101710.44;5084979;28;20045;-54
2023/02/02 07:29:13;;;;;;;31.98;9.02;;;;;;;6.45;100.00;101706.31;5073850;28;20033;-54
2023/02/02 07:31:40;;;;;;;34.80;8.68;;;;;;;6.45;100.00;101714.22;5073854;28;20055;-54
2023/02/02 07:34:07;;;;;;;34.75;8.82;;;;;;;6.50;100.00;101720.03;5072567;28;20052;-53
2023/02/02 07:36:34;;;;;;;27.38;9.23;;;;;;;6.58;100.00;101719.53;5083473;28;20043;-53
2023/02/02 07:39:03;;;;;;;34.50;9.30;;;;;;;6.46;100.00;101718.56;5113919;27;20036;-54
2023/02/02 07:41:30;;;;;;;26.85;9.18;;;;;;;6.52;100.00;101710.25;5114012;28;20071;-53
2023/02/02 07:43:57;;;;;;;36.05;8.88;;;;;;;6.45;100.00;101730.03;5114269;28;20100;-52
2023/02/02 07:46:24;;;;;;;35.25;9.00;;;;;;;6.56;100.00;101729.31;5114371;28;20043;-54
2023/02/02 07:48:54;;;;;;;34.97;9.63;;;;;;;6.45;100.00;101722.97;5113994;28;20048;-55
2023/02/02 07:51:22;;;;;;;31.85;9.82;;;;;;;6.52;100.00;101726.06;5113870;28;20044;-53
2023/02/02 07:53:51;;;;;;;27.23;8.90;;;;;;;6.56;100.00;101724.88;5113938;28;20043;-53
2023/02/02 07:56:21;;;;;;;40.35;11.38;;;;;;;6.49;100.00;101736.78;5085178;28;20059;-54
2023/02/02 07:58:50;;;;;;;29.25;9.13;;;;;;;6.52;100.00;101726.88;5090286;28;20043;-53
2023/02/02 08:01:19;;;;;;;35.85;10.27;;;;;;;6.53;100.00;101731.22;5095941;28;20047;-52
2023/02/02 08:03:46;;;;;;;37.72;11.52;;;;;;;6.55;100.00;101720.59;5090599;28;20054;-52
2023/02/02 08:06:22;;;;;;;37.75;12.73;;;;;;;6.53;100.00;101731.22;5055500;28;20045;-52
2023/02/02 08:08:50;;;;;;;33.55;12.48;;;;;;;6.54;100.00;101725.00;5091320;28;20506;-54
2023/02/02 08:11:19;;;;;;;30.88;11.20;;;;;;;6.69;100.00;101731.03;5090236;28;20040;-54
2023/02/02 08:13:49;;;;;;;41.47;12.43;;;;;;;6.71;100.00;101721.22;5102812;28;20048;-51
2023/02/02 08:16:16;;;;;;;34.35;12.05;;;;;;;6.57;100.00;101729.22;5064944;28;20108;-54
2023/02/02 08:18:42;;;;;;;34.80;13.25;;;;;;;6.59;100.00;101737.88;5091913;28;20126;-53
2023/02/02 08:21:10;;;;;;;38.75;12.95;;;;;;;6.57;100.00;101742.41;5100507;28;20502;-52
2023/02/02 08:23:38;;;;;;;33.70;12.15;;;;;;;6.59;100.00;101747.59;5078602;28;20055;-52
2023/02/02 08:26:10;;;;;;;27.83;11.32;;;;;;;6.44;100.00;101737.13;5101096;28;20064;-53
2023/02/02 08:28:38;;;;;;;35.25;12.60;;;;;;;6.49;100.00;101740.31;5075730;28;20120;-54
2023/02/02 08:31:08;;;;;;;37.50;12.48;;;;;;;6.60;100.00;101744.81;5065883;28;20073;-53
2023/02/02 08:33:35;;;;;;;43.88;12.85;;;;;;;6.50;100.00;101747.25;5066026;28;20040;-54
2023/02/02 08:36:03;;;;;;;32.78;12.40;;;;;;;6.65;100.00;101745.34;5092710;28;20044;-54
2023/02/02 08:38:30;;;;;;;40.45;12.90;;;;;;;6.62;100.00;101750.00;5054557;28;20044;-54
2023/02/02 08:41:04;;;;;;;39.13;12.82;;;;;;;6.56;100.00;101753.88;5094776;28;20047;-54
2023/02/02 08:43:31;;;;;;;45.10;12.23;;;;;;;6.58;100.00;101754.63;5086329;28;20043;-54
2023/02/02 08:45:58;;;;;;;37.38;9.35;;;;;;;6.66;100.00;101770.78;5101261;28;20731;-54
2023/02/02 08:48:25;;;;;;;29.42;9.45;;;;;;;6.65;100.00;101770.88;5079169;28;20151;-53
2023/02/02 08:50:54;;;;;;;28.40;8.27;;;;;;;6.61;100.00;101766.78;5103683;28;20039;-54
2023/02/02 08:53:22;;;;;;;27.63;9.77;;;;;;;6.67;100.00;101782.19;5073318;28;20054;-54
2023/02/02 08:55:58;;;;;;;33.72;9.60;;;;;;;6.61;100.00;101761.50;5097237;28;20677;-54
2023/02/02 08:58:25;;;;;;;39.13;9.80;;;;;;;6.58;100.00;101767.81;5074237;28;20043;-54
2023/02/02 09:00:52;;;;;;;46.47;11.90;;;;;;;6.61;100.00;101767.63;5085389;28;20028;-54
2023/02/02 09:03:19;;;;;;;34.55;10.43;;;;;;;6.72;100.00;101778.28;5086195;28;20527;-54
2023/02/02 09:05:46;;;;;;;33.65;10.63;;;;;;;6.66;100.00;101781.34;5089959;28;20040;-53
2023/02/02 09:08:14;;;;;;;37.97;10.02;;;;;;;6.65;100.00;101782.28;5053515;28;20056;-54
2023/02/02 09:10:40;;;;;;;32.30;10.77;;;;;;;6.58;100.00;101778.34;5093631;28;20028;-56
2023/02/02 09:13:07;;;;;;;27.08;8.43;;;;;;;6.52;100.00;101794.59;5093879;28;20071;-54
2023/02/02 09:15:34;;;;;;;32.28;11.13;;;;;;;6.58;100.00;101786.25;5072152;28;20064;-54
2023/02/02 09:18:01;;;;;;;36.85;11.05;;;;;;;6.56;100.00;101798.72;5081788;28;20044;-54
2023/02/02 09:20:27;;;;;;;34.72;10.27;;;;;;;6.57;100.00;101797.78;5087037;28;20123;-55
2023/02/02 09:22:55;;;;;;;36.72;11.48;;;;;;;6.62;100.00;101808.88;5080241;28;20768;-54
2023/02/02 09:25:26;;;;;;;39.35;11.13;;;;;;;6.56;100.00;101814.53;5092732;28;20490;-54
2023/02/02 09:27:53;;;;;;;42.58;11.50;;;;;;;6.60;100.00;101828.34;5106162;28;20044;-54
2023/02/02 09:30:20;;;;;;;35.28;11.00;;;;;;;6.51;100.00;101822.75;5090728;28;20040;-54
2023/02/02 09:32:49;;;;;;;38.33;11.13;;;;;;;6.57;100.00;101832.06;5083505;28;20059;-53
2023/02/02 09:35:16;;;;;;;29.58;10.55;;;;;;;6.53;100.00;101836.69;5088052;28;20047;-53
2023/02/02 09:37:44;;;;;;;36.20;10.45;;;;;;;6.59;100.00;101843.34;5070582;28;20044;-54
2023/02/02 09:40:17;;;;;;;33.28;10.82;;;;;;;6.57;100.00;101845.22;5097399;28;20036;-54
2023/02/02 09:43:01;;;;;;;40.70;12.40;;;;;;;6.53;100.00;101849.88;5106263;28;20063;-53
2023/02/02 09:45:44;;;;;;;34.42;11.55;;;;;;;6.54;100.00;101850.69;5091162;28;20071;-54
2023/02/02 09:48:37;;;;;;;44.75;12.05;;;;;;;6.58;100.00;101857.44;5093312;28;20048;-54
2023/02/02 09:51:12;;;;;;;38.40;11.52;;;;;;;6.53;100.00;101860.41;5090819;28;20060;-54
2023/02/02 09:53:46;;;;;;;36.08;11.82;;;;;;;6.56;100.00;101858.50;5074660;28;20048;-55
2023/02/02 09:56:28;;;;;;;;;;;;;;;6.61;100.00;101877.50;5078129;28;20557;-53
2023/02/02 09:59:00;;;;;;;33.80;14.10;;;;;;;6.64;100.00;101870.25;5092424;28;19924;-53
2023/02/02 10:01:43;;;;;;;36.83;13.13;;;;;;;6.60;100.00;101874.00;5093975;28;20040;-53
2023/02/02 10:04:33;;;;;;;36.97;11.80;;;;;;;6.63;100.00;101881.72;5085613;28;20044;-53
2023/02/02 10:07:10;;;;;;;33.42;13.90;;;;;;;6.75;100.00;101887.13;5072525;28;20546;-54
2023/02/02 10:09:47;;;;;;;40.20;13.82;;;;;;;6.80;100.00;101887.69;5076879;28;20039;-54
2023/02/02 10:15:44;;;;;;;37.47;13.40;;;;;;;6.72;100.00;101885.56;5082009;27;20401;-55
2023/02/02 10:18:27;;;;;;;27.83;10.23;;;;;;;6.71;100.00;101892.63;5089190;28;20040;-55
2023/02/02 10:21:01;;;;;;;25.23;9.98;;;;;;;6.73;100.00;101893.38;5083680;28;20040;-55
2023/02/02 10:23:36;;;;;;;26.60;9.88;;;;;;;6.78;100.00;101898.34;5062566;28;20108;-54
2023/02/02 10:26:13;;;;;;;33.97;12.30;;;;;;;6.81;100.00;101898.13;5082881;28;20068;-53
2023/02/02 10:28:51;;;;;;;32.97;11.40;;;;;;;6.86;100.00;101911.88;5063164;28;20041;-54
2023/02/02 10:31:58;;;;;;;30.63;11.02;;;;;;;6.85;100.00;101914.59;5078273;28;20053;-53
2023/02/02 10:34:50;;;;;;;32.65;11.90;;;;;;;6.92;100.00;101907.97;5077926;28;20068;-54
2023/02/02 10:37:34;;;;;;;31.60;11.65;;;;;;;6.99;100.00;101916.34;5059664;28;20037;-53
2023/02/02 10:40:42;;;;;;;26.02;9.88;;;;;;;6.98;100.00;101920.75;5069694;28;20711;-54
2023/02/02 10:44:00;;;;;;;40.28;12.02;;;;;;;7.04;100.00;101907.19;5067128;28;20120;-53
2023/02/02 10:52:04;;;;;;;37.67;9.70;;;;;;;7.17;100.00;101919.53;5065636;28;20372;-56
2023/02/02 10:54:53;;;;;;;32.28;9.55;;;;;;;7.14;100.00;101928.50;5049521;28;20780;-53
2023/02/02 10:57:37;;;;;;;29.80;9.20;;;;;;;7.20;100.00;101914.06;5053061;28;20041;-54
2023/02/02 11:00:28;;;;;;;33.05;9.27;;;;;;;7.16;100.00;101917.84;5059746;28;20045;-54
2023/02/02 11:02:55;;;;;;;24.35;7.43;;;;;;;7.14;100.00;101915.31;5063229;28;20053;-54
2023/02/02 11:08:20;;;;;;;27.90;6.70;;;;;;;7.11;100.00;101918.16;5061706;28;20468;-54
2023/02/02 11:10:50;;;;;;;31.95;8.48;;;;;;;7.20;100.00;101921.97;5049672;28;20080;-54
2023/02/02 11:13:32;;;;;;;29.15;8.80;;;;;;;7.17;100.00;101925.66;5053303;28;20089;-53
2023/02/02 11:18:51;;;;;;;32.40;8.35;;;;;;;7.22;100.00;101920.94;5055961;28;20419;-54
2023/02/02 11:21:26;;;;;;;35.70;8.02;;;;;;;7.25;100.00;101922.50;5060990;28;20490;-54
2023/02/02 11:26:54;;;;;;;33.60;8.43;;;;;;;7.25;100.00;101920.72;5080979;27;20376;-54
2023/02/02 11:29:30;;;;;;;23.55;5.88;;;;;;;7.28;100.00;101935.50;5062788;28;25339;-54
2023/02/02 11:31:57;;;;;;;27.08;7.53;;;;;;;7.18;100.00;101932.63;5087981;28;20051;-53
2023/02/02 11:34:26;;;;;;;27.05;7.97;;;;;;;7.21;100.00;101926.31;5089466;28;20523;-54
2023/02/02 11:37:20;;;;;;;29.10;8.05;;;;;;;7.25;100.00;101930.44;5083899;28;20135;-53
2023/02/02 11:39:47;;;;;;;27.17;8.02;;;;;;;7.25;100.00;101928.63;5071998;28;20051;-54
2023/02/02 11:42:17;;;;;;;27.42;8.48;;;;;;;7.32;100.00;101915.88;5095752;28;20067;-53
2023/02/02 11:44:48;;;;;;;33.78;8.43;;;;;;;7.33;100.00;101914.06;5076606;28;20383;-53
2023/02/02 11:47:32;;;;;;;23.70;7.72;;;;;;;7.39;99.93;101917.13;5078118;28;20044;-55
2023/02/02 11:50:03;;;;;;;32.03;8.13;;;;;;;7.43;100.00;101909.84;5077062;28;20051;-53
2023/02/02 11:52:32;;;;;;;27.38;7.28;;;;;;;7.45;99.54;101918.50;5061351;28;20044;-53
2023/02/02 11:55:07;;;;;;;22.88;7.38;;;;;;;7.38;99.19;101896.97;5060787;28;22164;-53
2023/02/02 11:57:34;;;;;;;28.05;7.35;;;;;;;7.37;100.00;101913.75;5085996;28;20060;-54
2023/02/02 12:00:19;;;;;;;16.40;7.18;;;;;;;7.43;99.54;101904.56;5083677;28;20041;-54